Silt, CO (81652)

6:15 AM MDT on September 16, 2014 (GMT -0600)
Garfield County Regional | Change Station
CLOSE
Current Station
Airport
Location: Rifle,
Elevation: 5541 ft
Nearby Weather Stations

Elev 5541 ft 39.52 °N, 107.73 °W | Updated 22 minutes ago

Clear
Clear
49 °F
Feels Like 49 °F
N
5
Wind Variable Wind from ESE

Today
High -- | Low -- °F
--% Chance of Precip.
Yesterday
High -- | Low -- °F
Precip. -- in
6:52 AM 7:17 PM
Last Quarter, 46% visible
Pressure 30.11 in
Visibility 10.0 miles
Clouds Clear
Dew Point 40 °F
Humidity 71%
Rainfall 0.00 in
Snow Depth 0 in , 188 in , 0 in
UV 0 out of 12
Pollen 5.50 out of 12
Air Quality Not available.
Flu Activity Not available.
METAR KRIL 161153Z AUTO 12004KT 10SM CLR 09/04 A3028 RMK AO2 SLP196 T00940044 10144 20089 53002

More Conditions Fewer Conditions

Pressure 30.11 in
Visibility 10.0 miles
Clouds Clear
Dew Point 40 °F
Humidity 71%
Rainfall 0.00 in
Snow Depth 0 in , 188 in , 0 in
UV 0 out of 12
Pollen 5.50 out of 12
Air Quality Not available.
Flu Activity Not available.
METAR KRIL 161153Z AUTO 12004KT 10SM CLR 09/04 A3028 RMK AO2 SLP196 T00940044 10144 20089 53002

More Conditions Fewer Conditions

10-Day Weather Forecast

Almanac

Astronomy

Sep. 16, 2014 Rise Set
Actual Time 6:52 AM MDT 7:17 PM MDT
Civil Twilight 6:25 AM MDT 7:44 PM MDT
Nautical Twilight 5:54 AM MDT 8:15 PM MDT
Astronomical Twilight 5:21 AM MDT 8:48 PM MDT
Moon 12:06 AM MDT 2:42 PM MDT
Length of Visible Light 13h 18m
Length of Day
12h 24m
Tomorrow will be 2m 34s shorter.
Last Quarter, 46% of the Moon is Illuminated
Today
Last Quarter
Sep 24
New
Oct 1
First Quarter
Oct 8
Full
Oct 15
Last Quarter

Today's Extremes

State Highs State Lows

Community

WunderPhotos

Upload Photos

1,753,743 photos uploaded!

Nearby

Snow Depth

Station Depth Elevation
Ivanhoe 0 in 10400 ft
Independence Pass 188 in 10600 ft
Hoosier Pass 0 in 11400 ft
Porphyry Creek 0 in 10760 ft
Phantom Valley 0 in 9030 ft

Earthquake Activity

City Distance Mag. Time & Date
No recent earthquake activity has been reported nearby.
Minimum magnitude displayed is 2.5.

Coastal Water Temperatures

Place Temperature
No Stations Reporting

Nearby Weather Stations